createdAt,value
2019-02-17T00:01:04.163Z,74.84
2019-02-17T00:03:34.861Z,75.42
2019-02-17T00:06:05.479Z,75.52
2019-02-17T00:08:36.604Z,75.28
2019-02-17T00:11:07.267Z,75.82
2019-02-17T00:13:37.884Z,75.84
2019-02-17T00:16:08.536Z,76.36
2019-02-17T00:18:39.219Z,76.76
2019-02-17T00:21:09.828Z,76.98
2019-02-17T00:23:40.521Z,76.84
2019-02-17T00:26:11.097Z,77.06
2019-02-17T00:28:41.685Z,77.39
2019-02-17T00:31:12.343Z,76.46
2019-02-17T00:33:43.003Z,76.99
2019-02-17T00:36:13.649Z,76.70
2019-02-17T00:38:44.301Z,76.81
2019-02-17T00:41:14.930Z,76.59
2019-02-17T00:43:45.538Z,76.11
2019-02-17T00:46:16.255Z,76.19
2019-02-17T00:48:46.852Z,76.49
2019-02-17T00:51:17.515Z,76.67
2019-02-17T00:53:48.211Z,76.69
2019-02-17T00:56:18.942Z,76.84
2019-02-17T00:58:49.523Z,77.12
2019-02-17T01:01:20.172Z,76.98
2019-02-17T01:03:50.752Z,76.87
2019-02-17T01:06:21.328Z,77.44
2019-02-17T01:08:54.982Z,77.37
2019-02-17T01:11:25.583Z,77.69
2019-02-17T01:13:56.269Z,77.18
2019-02-17T01:16:26.893Z,77.81
2019-02-17T01:18:57.508Z,77.77
2019-02-17T01:21:28.135Z,78.06
2019-02-17T01:23:58.813Z,78.31
2019-02-17T01:26:29.460Z,78.51
2019-02-17T01:29:00.110Z,78.16
2019-02-17T01:31:30.687Z,78.21
2019-02-17T01:34:10.502Z,78.51
2019-02-17T01:36:41.125Z,78.66
2019-02-17T01:39:11.789Z,78.23
2019-02-17T01:41:42.362Z,78.74
2019-02-17T01:44:12.967Z,79.17
2019-02-17T01:46:43.677Z,79.26
2019-02-17T01:49:14.327Z,79.33
2019-02-17T01:51:44.896Z,79.00
2019-02-17T01:54:15.562Z,79.09
2019-02-17T01:56:46.158Z,79.36
2019-02-17T01:59:16.836Z,79.60
2019-02-17T02:01:47.487Z,79.32
2019-02-17T02:04:18.118Z,79.35
2019-02-17T02:06:48.825Z,79.54
2019-02-17T02:09:19.429Z,79.59
2019-02-17T02:11:50.041Z,79.83
2019-02-17T02:14:20.783Z,79.94
2019-02-17T02:16:51.337Z,79.83
2019-02-17T02:19:21.948Z,79.48
2019-02-17T02:21:52.613Z,79.50
2019-02-17T02:24:23.300Z,79.72
2019-02-17T02:26:53.917Z,79.84
2019-02-17T02:29:24.628Z,79.80
2019-02-17T02:31:55.272Z,79.97
2019-02-17T02:34:25.918Z,79.72
2019-02-17T02:36:56.672Z,79.93
2019-02-17T02:39:27.369Z,79.92
2019-02-17T02:41:57.982Z,80.09
2019-02-17T02:44:28.631Z,80.19
2019-02-17T02:46:59.320Z,80.22
2019-02-17T02:49:30.111Z,80.32
2019-02-17T02:52:00.727Z,80.37
2019-02-17T02:54:31.543Z,80.28
2019-02-17T02:57:02.103Z,80.25
2019-02-17T02:59:32.845Z,80.37
2019-02-17T03:02:03.399Z,80.32
2019-02-17T03:04:34.039Z,80.57
2019-02-17T03:07:07.972Z,80.44
2019-02-17T03:09:38.579Z,80.55
2019-02-17T03:12:09.218Z,80.34
2019-02-17T03:14:39.884Z,80.60
2019-02-17T03:17:10.455Z,80.35
2019-02-17T03:19:41.022Z,80.42
2019-02-17T03:22:11.642Z,80.39
2019-02-17T03:24:42.355Z,80.56
2019-02-17T03:27:12.931Z,80.64
2019-02-17T03:29:43.550Z,80.67
2019-02-17T03:32:14.141Z,80.61
2019-02-17T03:34:44.817Z,80.42
2019-02-17T03:37:15.418Z,80.56
2019-02-17T03:39:45.991Z,80.62
2019-02-17T03:42:16.590Z,80.32
2019-02-17T03:44:47.175Z,80.37
2019-02-17T03:47:17.880Z,80.27
2019-02-17T03:49:48.442Z,80.30
2019-02-17T03:52:19.064Z,80.19
2019-02-17T03:54:49.639Z,80.03
2019-02-17T03:57:20.261Z,79.87
2019-02-17T03:59:51.044Z,79.67
2019-02-17T06:32:50.862Z,81.24
2019-02-17T06:35:21.378Z,81.12
2019-02-17T06:37:51.835Z,81.10
2019-02-17T06:40:22.419Z,80.09
2019-02-17T06:42:52.890Z,80.31
2019-02-17T06:45:23.389Z,79.76
2019-02-17T06:47:54.003Z,80.31
2019-02-17T06:50:24.467Z,80.47
2019-02-17T06:52:54.975Z,80.26
2019-02-17T06:55:56.577Z,79.78
2019-02-17T06:58:27.100Z,79.77
2019-02-17T07:00:59.520Z,79.86
2019-02-17T07:03:30.176Z,79.65
2019-02-17T07:06:18.039Z,78.58
2019-02-17T07:08:48.681Z,78.73
2019-02-17T07:11:19.171Z,78.75
2019-02-17T07:13:49.666Z,78.97
2019-02-17T07:16:23.214Z,79.24
2019-02-17T07:18:53.711Z,78.88
2019-02-17T07:21:24.199Z,79.13
2019-02-17T07:23:55.170Z,79.18
2019-02-17T07:26:25.739Z,78.79
2019-02-17T07:28:56.309Z,79.24
2019-02-17T07:31:34.626Z,78.46
2019-02-17T07:34:03.508Z,77.81
2019-02-17T07:36:34.522Z,77.60
2019-02-17T07:39:06.279Z,76.86
2019-02-17T07:41:37.127Z,76.87
2019-02-17T07:44:07.941Z,77.01
2019-02-17T07:46:39.059Z,76.96
2019-02-17T07:49:09.791Z,77.44
2019-02-17T07:51:40.757Z,76.65
2019-02-17T07:54:11.453Z,76.90
2019-02-17T07:56:44.144Z,77.10
2019-02-17T07:59:14.739Z,76.93
2019-02-17T08:01:45.760Z,77.01
2019-02-17T08:04:17.839Z,77.30
2019-02-17T08:06:48.659Z,77.97
2019-02-17T08:09:19.833Z,77.38
2019-02-17T08:11:51.133Z,78.05
2019-02-17T08:14:21.680Z,79.23
2019-02-17T08:16:52.240Z,78.46
2019-02-17T08:19:22.739Z,78.29
2019-02-17T08:21:55.703Z,78.26
2019-02-17T08:24:26.482Z,78.15
2019-02-17T08:26:57.227Z,78.59
2019-02-17T08:29:29.543Z,77.74
2019-02-17T08:32:00.221Z,77.03
2019-02-17T08:34:30.798Z,77.16
2019-02-17T08:37:01.307Z,76.50
2019-02-17T08:39:31.944Z,76.13
2019-02-17T08:42:03.013Z,76.58
2019-02-17T08:44:33.526Z,76.41
2019-02-17T08:47:04.133Z,76.30
2019-02-17T08:49:34.700Z,76.32
2019-02-17T08:52:05.294Z,76.43
2019-02-17T08:54:35.816Z,76.20
2019-02-17T08:57:06.330Z,76.24
2019-02-17T08:59:36.914Z,76.23
2019-02-17T09:02:07.721Z,75.91
2019-02-17T09:04:38.166Z,76.13
2019-02-17T09:07:08.964Z,76.46
2019-02-17T09:09:39.479Z,75.82
2019-02-17T09:12:09.989Z,76.06
2019-02-17T09:14:40.594Z,75.65
2019-02-17T09:17:11.147Z,75.84
2019-02-17T09:19:41.716Z,76.30
2019-02-17T09:22:12.209Z,76.45
2019-02-17T09:24:42.935Z,76.38
2019-02-17T09:27:13.450Z,76.77
2019-02-17T09:29:43.911Z,76.48
2019-02-17T09:32:16.657Z,76.14
2019-02-17T09:34:46.989Z,76.04
2019-02-17T09:37:17.627Z,76.21
2019-02-17T09:39:48.194Z,75.71
2019-02-17T09:42:18.664Z,75.81
2019-02-17T09:44:49.246Z,75.66
2019-02-17T09:47:19.730Z,75.38
2019-02-17T09:49:50.253Z,75.90
2019-02-17T09:52:20.886Z,75.69
2019-02-17T09:54:51.417Z,75.46
2019-02-17T09:57:21.859Z,75.55
2019-02-17T09:59:52.821Z,75.47
2019-02-17T10:02:26.500Z,75.17
2019-02-17T10:04:56.694Z,74.50
2019-02-17T10:07:27.308Z,73.00
2019-02-17T10:09:57.850Z,71.55
2019-02-17T10:12:28.386Z,70.99
2019-02-17T10:14:58.972Z,70.71
2019-02-17T10:17:31.142Z,69.03
2019-02-17T10:20:01.855Z,69.37
2019-02-17T10:22:32.418Z,68.66
2019-02-17T10:25:02.963Z,68.91
2019-02-17T10:27:33.697Z,68.11
2019-02-17T10:30:04.619Z,67.85
2019-02-17T10:32:38.984Z,67.59
2019-02-17T10:35:08.103Z,67.38
2019-02-17T10:37:38.830Z,67.14
2019-02-17T10:40:12.097Z,66.15
2019-02-17T10:42:42.678Z,65.20
2019-02-17T10:45:13.586Z,65.42
2019-02-17T10:47:44.311Z,64.87
2019-02-17T10:50:14.903Z,65.24
2019-02-17T10:52:45.477Z,64.08
2019-02-17T10:55:16.130Z,63.48
2019-02-17T10:57:47.267Z,64.13
2019-02-17T11:00:19.732Z,63.24
2019-02-17T11:02:50.812Z,63.14
2019-02-17T11:05:22.981Z,62.33
2019-02-17T11:07:53.571Z,62.38
2019-02-17T11:10:24.110Z,62.54
2019-02-17T11:12:54.662Z,62.78
2019-02-17T11:15:25.271Z,62.50
2019-02-17T11:17:56.181Z,62.61
2019-02-17T11:20:26.696Z,62.10
2019-02-17T11:22:57.257Z,61.72
2019-02-17T11:25:27.835Z,61.72
2019-02-17T11:27:58.397Z,60.93
2019-02-17T11:30:28.943Z,60.47
2019-02-17T11:32:59.600Z,60.52
2019-02-17T11:35:30.166Z,60.15
2019-02-17T11:38:00.791Z,59.74
2019-02-17T11:40:31.362Z,59.40
2019-02-17T11:43:01.960Z,58.95
2019-02-17T11:45:32.835Z,59.11
2019-02-17T11:48:03.983Z,58.66
2019-02-17T11:50:34.761Z,58.02
2019-02-17T11:53:05.316Z,57.94
2019-02-17T11:55:35.873Z,57.81
2019-02-17T11:58:06.382Z,56.86
2019-02-17T12:00:36.930Z,57.24
2019-02-17T12:03:08.375Z,57.00
2019-02-17T12:05:39.123Z,56.83
2019-02-17T12:08:09.611Z,55.86
2019-02-17T12:10:40.265Z,55.20
2019-02-17T12:13:10.876Z,56.05
2019-02-17T12:15:41.440Z,55.98
2019-02-17T12:18:12.079Z,55.54
2019-02-17T12:21:07.410Z,54.55
2019-02-17T12:23:43.567Z,54.10
2019-02-17T12:26:33.011Z,53.83
2019-02-17T12:29:09.807Z,52.38
2019-02-17T12:31:41.017Z,53.70
2019-02-17T12:34:11.580Z,54.47
2019-02-17T12:36:42.125Z,54.85
2019-02-17T12:39:15.091Z,54.86
2019-02-17T12:41:48.192Z,54.13
2019-02-17T12:44:19.115Z,53.36
2019-02-17T12:46:49.826Z,53.32
2019-02-17T12:49:20.451Z,52.86
2019-02-17T12:51:51.056Z,53.00
2019-02-17T12:54:28.858Z,51.90
2019-02-17T12:56:53.872Z,51.43
2019-02-17T12:59:24.667Z,51.01
2019-02-17T13:01:55.167Z,51.35
2019-02-17T13:04:25.818Z,50.77
2019-02-17T13:06:56.478Z,51.38
2019-02-17T13:09:27.018Z,52.01
2019-02-17T13:11:57.537Z,52.43
2019-02-17T13:14:28.318Z,50.92
2019-02-17T13:16:58.982Z,51.38
2019-02-17T13:19:29.595Z,51.67
2019-02-17T13:22:00.299Z,51.42
2019-02-17T13:24:31.086Z,49.97
2019-02-17T13:27:01.690Z,49.36
2019-02-17T13:29:32.326Z,50.06
2019-02-17T13:32:02.938Z,51.58
2019-02-17T13:34:33.490Z,52.94
2019-02-17T13:37:04.055Z,52.91
2019-02-17T13:39:34.626Z,52.46
2019-02-17T13:42:05.167Z,52.37
2019-02-17T13:44:35.840Z,52.67
2019-02-17T13:47:06.440Z,53.24
2019-02-17T13:49:37.128Z,53.39
2019-02-17T13:52:09.317Z,52.63
2019-02-17T13:54:39.921Z,52.51
2019-02-17T13:57:10.413Z,52.09
2019-02-17T13:59:41.118Z,51.95
2019-02-17T14:02:11.848Z,50.66
2019-02-17T14:04:45.912Z,50.82
2019-02-17T14:07:16.544Z,51.17
2019-02-17T14:09:47.183Z,51.66
2019-02-17T14:12:17.693Z,50.82
2019-02-17T14:14:48.377Z,50.57
2019-02-17T14:17:19.123Z,49.72
2019-02-17T14:19:49.951Z,48.93
2019-02-17T14:22:20.480Z,48.20
2019-02-17T14:24:50.941Z,48.67
2019-02-17T14:27:21.586Z,48.82
2019-02-17T14:29:53.803Z,48.56
2019-02-17T14:32:24.798Z,48.72
2019-02-17T14:34:55.359Z,49.63
2019-02-17T14:37:26.095Z,48.47
2019-02-17T14:39:56.796Z,48.10
2019-02-17T14:42:27.295Z,48.45
2019-02-17T14:44:58.379Z,50.19
2019-02-17T14:47:29.009Z,50.42
2019-02-17T14:49:59.560Z,50.94
2019-02-17T14:52:30.383Z,51.17
2019-02-17T14:55:00.940Z,51.43
2019-02-17T14:57:31.466Z,50.97
2019-02-17T15:00:02.100Z,51.81
2019-02-17T15:02:54.641Z,52.12
2019-02-17T15:05:25.222Z,52.14
2019-02-17T15:07:55.990Z,51.50
2019-02-17T15:10:26.547Z,52.18
2019-02-17T15:12:57.159Z,53.17
2019-02-17T15:15:29.055Z,53.21
2019-02-17T15:17:59.957Z,54.00
2019-02-17T15:20:30.743Z,54.00
2019-02-17T15:23:02.051Z,55.02
2019-02-17T15:25:32.591Z,55.64
2019-02-17T15:28:03.398Z,55.93
2019-02-17T15:30:34.105Z,56.00
2019-02-17T15:33:04.685Z,55.71
2019-02-17T15:35:35.209Z,57.18
2019-02-17T15:38:05.822Z,56.57
2019-02-17T15:40:36.458Z,57.44
2019-02-17T15:43:07.200Z,57.83
2019-02-17T15:45:37.807Z,58.52
2019-02-17T15:48:08.401Z,58.92
2019-02-17T15:50:39.085Z,59.61
2019-02-17T15:53:09.588Z,59.96
2019-02-17T15:55:40.266Z,60.10
2019-02-17T15:58:10.731Z,60.62
2019-02-17T16:00:41.216Z,61.61
2019-02-17T16:03:11.752Z,61.59
2019-02-17T16:05:42.290Z,61.98
2019-02-17T16:08:12.787Z,62.20
2019-02-17T16:10:43.319Z,62.30
2019-02-17T16:13:13.862Z,63.05
2019-02-17T16:15:44.783Z,63.61
2019-02-17T16:18:15.653Z,63.69
2019-02-17T16:20:46.200Z,63.94
2019-02-17T16:23:16.788Z,63.91
2019-02-17T16:25:47.691Z,64.04
2019-02-17T16:28:18.898Z,64.53
2019-02-17T16:30:49.390Z,65.62
2019-02-17T16:33:19.932Z,66.39
2019-02-17T16:35:50.801Z,67.12
2019-02-17T16:38:21.401Z,67.49
2019-02-17T16:40:51.925Z,67.41
2019-02-17T16:43:22.851Z,67.88
2019-02-17T16:45:53.553Z,68.08
2019-02-17T16:48:24.243Z,68.54
2019-02-17T16:50:54.762Z,69.11
2019-02-17T16:53:25.706Z,69.57
2019-02-17T16:55:56.895Z,69.71
2019-02-17T16:58:27.468Z,70.15
2019-02-17T17:00:57.995Z,70.54
2019-02-17T17:03:28.479Z,70.62
2019-02-17T17:05:59.005Z,71.01
2019-02-17T17:08:29.522Z,70.87
2019-02-17T17:11:00.079Z,71.50
2019-02-17T17:13:30.595Z,71.32
2019-02-17T17:16:01.089Z,71.47
2019-02-17T17:18:31.614Z,72.30
2019-02-17T17:21:02.787Z,73.30
2019-02-17T17:23:33.471Z,73.76
2019-02-17T17:26:04.111Z,73.69
2019-02-17T17:28:34.912Z,74.52
2019-02-17T17:31:05.417Z,74.69
2019-02-17T17:33:36.005Z,74.84
2019-02-17T17:36:18.093Z,75.48
2019-02-17T17:38:48.325Z,75.51
2019-02-17T17:41:18.836Z,75.40
2019-02-17T17:43:49.337Z,75.08
2019-02-17T17:46:19.884Z,74.67
2019-02-17T17:48:51.689Z,74.61
2019-02-17T17:51:22.189Z,74.55
2019-02-17T17:53:52.728Z,74.57
2019-02-17T17:56:23.255Z,74.84
2019-02-17T17:58:53.859Z,74.69
2019-02-17T18:01:24.366Z,74.92
2019-02-17T18:03:54.885Z,75.02
2019-02-17T18:06:25.388Z,75.26
2019-02-17T18:08:55.896Z,75.68
2019-02-17T18:11:26.464Z,75.87
2019-02-17T18:13:56.901Z,76.00
2019-02-17T18:16:27.407Z,76.38
2019-02-17T18:18:57.947Z,76.48
2019-02-17T18:21:28.483Z,76.50
2019-02-17T18:23:59.466Z,76.92
2019-02-17T18:26:30.549Z,76.62
2019-02-17T18:29:01.091Z,77.34
2019-02-17T18:31:32.018Z,77.75
2019-02-17T18:34:02.509Z,77.80
2019-02-17T18:36:36.863Z,77.82
2019-02-17T18:39:08.980Z,78.16
2019-02-17T18:41:39.460Z,78.26
2019-02-17T18:44:13.638Z,78.88
2019-02-17T18:46:44.159Z,78.97
2019-02-17T18:49:14.703Z,79.16
2019-02-17T18:51:45.311Z,79.40
2019-02-17T18:54:15.841Z,79.43
2019-02-17T18:56:46.347Z,80.10
2019-02-17T18:59:16.952Z,80.17
2019-02-17T19:01:50.126Z,80.34
2019-02-17T19:04:20.728Z,80.62
2019-02-17T19:06:51.350Z,80.69
2019-02-17T19:09:22.147Z,81.20
2019-02-17T19:11:52.625Z,81.18
2019-02-17T19:14:23.225Z,81.35
2019-02-17T19:16:54.125Z,81.24
2019-02-17T19:19:26.364Z,81.94
2019-02-17T19:21:57.013Z,81.41
2019-02-17T19:24:27.660Z,81.91
2019-02-17T19:26:58.249Z,81.32
2019-02-17T19:29:29.030Z,81.30
2019-02-17T19:31:59.559Z,81.95
2019-02-17T19:34:30.244Z,82.04
2019-02-17T19:37:00.828Z,82.31
2019-02-17T19:39:31.347Z,82.52
2019-02-17T19:42:01.885Z,82.30
2019-02-17T19:44:32.426Z,82.08
2019-02-17T19:47:03.400Z,82.88
2019-02-17T19:49:47.011Z,82.89
2019-02-17T19:52:18.400Z,83.29
2019-02-17T19:54:49.170Z,82.76
2019-02-17T19:57:19.817Z,82.50
2019-02-17T19:59:50.451Z,82.82
2019-02-17T20:02:28.362Z,83.34
2019-02-17T20:05:11.624Z,83.41
2019-02-17T20:07:42.203Z,83.13
2019-02-17T20:10:12.711Z,83.63
2019-02-17T20:12:43.340Z,84.09
2019-02-17T20:15:13.937Z,83.99
2019-02-17T20:17:44.562Z,84.19
2019-02-17T20:20:15.248Z,84.72
2019-02-17T20:22:45.900Z,84.92
2019-02-17T20:25:19.217Z,84.60
2019-02-17T20:27:49.729Z,84.49
2019-02-17T20:30:20.680Z,84.46
2019-02-17T20:32:51.254Z,84.84
2019-02-17T20:35:22.052Z,84.57
2019-02-17T20:37:52.608Z,84.65
2019-02-17T20:40:30.223Z,84.61
2019-02-17T20:43:00.788Z,84.79
2019-02-17T20:45:31.317Z,84.70
2019-02-17T20:48:03.109Z,84.63
2019-02-17T20:50:33.904Z,84.65
2019-02-17T20:53:04.625Z,84.80
2019-02-17T20:55:35.244Z,84.86
2019-02-17T20:58:05.874Z,84.81
2019-02-17T21:00:36.504Z,84.73
2019-02-17T21:03:07.101Z,84.83
2019-02-17T21:05:37.614Z,85.01
2019-02-17T21:08:08.296Z,85.02
2019-02-17T21:10:40.493Z,85.02
2019-02-17T21:13:11.300Z,85.16
2019-02-17T21:15:42.185Z,85.37
2019-02-17T21:18:12.936Z,85.18
2019-02-17T21:20:43.583Z,84.88
2019-02-17T21:23:15.377Z,84.93
2019-02-17T21:25:48.588Z,84.86
2019-02-17T21:28:20.830Z,84.62
2019-02-17T21:31:10.588Z,85.01
2019-02-17T21:33:44.911Z,84.89
2019-02-17T21:36:23.203Z,84.84
2019-02-17T21:38:50.232Z,84.95
2019-02-17T21:41:21.246Z,85.21
2019-02-17T21:43:52.339Z,85.98
2019-02-17T21:46:22.931Z,85.99
2019-02-17T21:48:53.581Z,86.38
2019-02-17T21:51:24.166Z,86.12
2019-02-17T21:53:54.662Z,86.61
2019-02-17T21:56:25.179Z,86.77
2019-02-17T21:58:56.917Z,87.00
2019-02-17T22:01:27.489Z,86.82
2019-02-17T22:03:58.061Z,87.28
2019-02-17T22:06:33.555Z,87.23
2019-02-17T22:09:00.932Z,87.17
2019-02-17T22:11:32.688Z,87.07
2019-02-17T22:14:03.447Z,86.83
2019-02-17T22:16:34.022Z,86.72
2019-02-17T22:19:04.642Z,86.45
2019-02-17T22:21:35.265Z,86.64
2019-02-17T22:24:05.822Z,86.86
2019-02-17T22:26:36.439Z,87.00
2019-02-17T22:29:07.127Z,87.11
2019-02-17T22:31:37.696Z,87.49
2019-02-17T22:34:08.401Z,87.42
2019-02-17T22:36:43.778Z,87.96
2019-02-17T22:39:11.437Z,87.83
2019-02-17T22:41:42.042Z,87.71
2019-02-17T22:44:12.827Z,88.15
2019-02-17T22:46:43.389Z,88.09
2019-02-17T22:49:14.089Z,88.11
2019-02-17T22:51:44.607Z,88.38
2019-02-17T22:54:15.179Z,88.23
2019-02-17T22:56:45.803Z,88.11
2019-02-17T22:59:16.436Z,88.29
2019-02-17T23:01:47.580Z,88.36
2019-02-17T23:04:18.163Z,88.22
2019-02-17T23:06:54.053Z,88.08
2019-02-17T23:09:21.176Z,87.81
2019-02-17T23:11:51.857Z,88.03
2019-02-17T23:14:22.460Z,87.65
2019-02-17T23:16:52.995Z,87.02
2019-02-17T23:19:23.588Z,87.06
2019-02-17T23:21:54.231Z,86.91
2019-02-17T23:24:24.989Z,86.96
2019-02-17T23:26:55.559Z,86.72
2019-02-17T23:29:26.218Z,87.17
2019-02-17T23:31:56.850Z,87.41
2019-02-17T23:34:27.439Z,87.70
2019-02-17T23:37:04.033Z,87.95
2019-02-17T23:39:30.296Z,88.08
2019-02-17T23:42:00.974Z,88.10
2019-02-17T23:44:31.977Z,87.90
2019-02-17T23:47:02.517Z,87.78
2019-02-17T23:49:33.115Z,87.54
2019-02-17T23:52:03.663Z,87.59
2019-02-17T23:54:34.314Z,87.51
2019-02-17T23:57:04.922Z,87.26
2019-02-17T23:59:35.521Z,87.45
